Time;durP1;ratioP1;P1;durP2;ratioP2;P2;SDS_P1;SDS_P2;PMS_P1;PMS_P2;Temp;Humidity;BMP_temperature;BMP_pressure;BME280_temperature;BME280_humidity;BME280_pressure;Samples;Min_cycle;Max_cycle;Signal;HPM_P1;HPM_P2
2023/06/28 00:02:04;;;;;;;4.40;3.10;;;24.30;51.30;;;;;;6265708;22;20143;-66
2023/06/28 00:04:29;;;;;;;4.70;3.43;;;24.30;51.40;;;;;;6265462;22;20710;-66
2023/06/28 00:06:55;;;;;;;6.03;3.03;;;24.30;51.60;;;;;;6264049;22;20189;-67
2023/06/28 00:09:20;;;;;;;4.07;2.87;;;24.30;51.60;;;;;;6264436;22;20167;-67
2023/06/28 00:11:46;;;;;;;6.23;3.20;;;24.30;51.80;;;;;;6265452;22;20155;-67
2023/06/28 00:14:12;;;;;;;4.53;3.30;;;24.30;51.80;;;;;;6263543;22;20519;-67
2023/06/28 00:16:37;;;;;;;5.13;3.30;;;24.30;51.90;;;;;;6239677;22;20157;-67
2023/06/28 00:19:03;;;;;;;4.10;3.13;;;24.20;52.00;;;;;;6264471;22;20540;-66
2023/06/28 00:21:28;;;;;;;8.40;3.50;;;24.20;52.10;;;;;;6264972;22;20257;-66
2023/06/28 00:23:54;;;;;;;3.20;2.90;;;24.20;52.30;;;;;;6264514;22;20588;-66
2023/06/28 00:26:21;;;;;;;3.77;2.80;;;24.10;52.40;;;;;;6264191;22;20151;-66
2023/06/28 00:28:47;;;;;;;6.60;3.23;;;24.10;52.40;;;;;;6267059;22;20400;-66
2023/06/28 00:31:13;;;;;;;7.30;3.23;;;24.10;52.80;;;;;;6266797;22;20378;-66
2023/06/28 00:33:39;;;;;;;5.90;3.37;;;24.00;52.70;;;;;;6264827;22;20870;-66
2023/06/28 00:36:05;;;;;;;6.17;3.10;;;24.00;52.80;;;;;;6266389;22;20333;-66
2023/06/28 00:38:32;;;;;;;5.03;3.23;;;24.00;52.80;;;;;;6262964;22;20780;-66
2023/06/28 00:40:58;;;;;;;8.00;3.83;;;24.00;53.10;;;;;;6265176;22;20220;-66
2023/06/28 00:43:23;;;;;;;6.87;3.27;;;24.00;53.10;;;;;;6267840;22;20381;-66
2023/06/28 00:45:49;;;;;;;4.77;3.23;;;24.00;53.40;;;;;;6266551;22;20535;-66
2023/06/28 00:48:15;;;;;;;5.67;4.03;;;24.00;53.40;;;;;;6266670;22;20552;-66
2023/06/28 00:50:41;;;;;;;6.03;3.30;;;23.90;53.70;;;;;;6265960;22;20343;-66
2023/06/28 00:53:07;;;;;;;3.97;3.00;;;23.90;53.70;;;;;;6265846;22;20201;-66
2023/06/28 00:55:33;;;;;;;6.20;3.77;;;24.00;53.80;;;;;;6264706;22;20388;-66
2023/06/28 00:57:59;;;;;;;7.40;3.53;;;24.00;53.60;;;;;;6262641;22;20472;-66
2023/06/28 01:00:26;;;;;;;6.80;3.17;;;24.00;53.60;;;;;;6264396;22;20179;-66
2023/06/28 01:02:52;;;;;;;3.43;3.13;;;23.90;54.00;;;;;;6264653;22;20392;-66
2023/06/28 01:05:20;;;;;;;6.13;3.77;;;23.90;53.80;;;;;;6264699;22;20373;-66
2023/06/28 01:07:47;;;;;;;4.37;3.60;;;23.90;53.70;;;;;;6264719;22;20189;-66
2023/06/28 01:10:13;;;;;;;4.90;3.33;;;24.00;54.20;;;;;;6262614;22;20373;-66
2023/06/28 01:12:40;;;;;;;4.00;3.40;;;23.90;54.00;;;;;;6264537;22;20366;-66
2023/06/28 01:15:07;;;;;;;4.10;3.70;;;23.90;53.80;;;;;;6263982;22;20375;-66
2023/06/28 01:17:32;;;;;;;3.67;3.17;;;23.90;54.30;;;;;;6264539;22;20373;-66
2023/06/28 01:19:58;;;;;;;4.40;3.63;;;23.90;55.00;;;;;;6263483;22;20417;-66
2023/06/28 01:22:25;;;;;;;6.90;4.17;;;23.80;55.70;;;;;;6265697;22;20156;-66
2023/06/28 01:24:51;;;;;;;4.40;3.30;;;23.70;56.80;;;;;;6264536;22;20388;-66
2023/06/28 01:27:17;;;;;;;4.00;3.60;;;23.70;56.40;;;;;;6264629;22;20373;-66
2023/06/28 01:29:42;;;;;;;6.33;3.70;;;23.70;56.50;;;;;;6265101;22;20397;-66
2023/06/28 01:32:08;;;;;;;6.80;3.90;;;23.60;56.70;;;;;;6264637;22;20674;-66
2023/06/28 01:34:33;;;;;;;6.30;3.60;;;23.60;57.40;;;;;;6260941;22;20158;-66
2023/06/28 01:37:01;;;;;;;3.70;3.40;;;23.60;57.60;;;;;;6264092;22;20147;-66
2023/06/28 01:39:28;;;;;;;5.23;3.50;;;23.60;58.30;;;;;;6264198;22;20318;-66
2023/06/28 01:41:54;;;;;;;7.60;4.17;;;23.60;58.50;;;;;;6262831;22;20373;-65
2023/06/28 01:44:21;;;;;;;7.20;3.90;;;23.50;60.70;;;;;;6263692;22;20709;-65
2023/06/28 01:46:47;;;;;;;6.10;4.50;;;23.50;63.40;;;;;;6264902;22;20373;-65
2023/06/28 01:49:13;;;;;;;4.20;3.70;;;23.40;62.00;;;;;;6263817;22;20419;-65
2023/06/28 01:51:39;;;;;;;8.33;3.73;;;23.40;61.10;;;;;;6263815;22;20385;-65
2023/06/28 01:54:05;;;;;;;5.07;4.20;;;23.30;61.40;;;;;;6264597;22;20161;-66
2023/06/28 01:56:31;;;;;;;5.37;4.00;;;23.30;60.80;;;;;;6264325;22;20570;-66
2023/06/28 01:58:56;;;;;;;3.70;3.27;;;23.30;60.20;;;;;;6261992;22;20470;-66
2023/06/28 02:01:22;;;;;;;6.87;4.20;;;23.30;60.50;;;;;;6264397;22;20178;-66
2023/06/28 02:03:48;;;;;;;3.97;3.60;;;23.30;60.50;;;;;;6262303;22;20150;-65
2023/06/28 02:06:14;;;;;;;4.40;4.00;;;23.30;61.00;;;;;;6237865;22;20586;-65
2023/06/28 02:08:40;;;;;;;4.03;3.30;;;23.20;60.90;;;;;;6263916;22;20163;-66
2023/06/28 02:11:05;;;;;;;4.10;3.53;;;23.20;61.50;;;;;;6262909;22;20709;-66
2023/06/28 02:13:31;;;;;;;6.57;3.83;;;23.20;61.50;;;;;;6264436;22;20204;-66
2023/06/28 02:15:56;;;;;;;4.00;3.30;;;23.20;61.30;;;;;;6265066;22;20640;-66
2023/06/28 02:18:24;;;;;;;5.67;3.80;;;23.20;61.80;;;;;;6265278;22;20660;-66
2023/06/28 02:20:51;;;;;;;3.90;3.43;;;23.20;61.90;;;;;;6265109;22;20230;-66
2023/06/28 02:23:17;;;;;;;9.47;3.60;;;23.10;61.70;;;;;;6263261;22;20875;-66
2023/06/28 02:25:42;;;;;;;4.83;3.80;;;23.10;62.00;;;;;;6265219;22;20402;-66
2023/06/28 02:28:08;;;;;;;4.90;3.60;;;23.10;61.90;;;;;;6264198;22;20249;-66
2023/06/28 02:30:33;;;;;;;3.83;3.50;;;23.10;61.70;;;;;;6263427;22;20158;-67
2023/06/28 02:32:59;;;;;;;5.57;4.23;;;23.10;61.20;;;;;;6261600;22;20691;-66
2023/06/28 02:35:24;;;;;;;6.53;4.00;;;23.10;60.90;;;;;;6265819;22;20602;-66
2023/06/28 02:37:50;;;;;;;5.23;3.90;;;23.00;61.20;;;;;;6265264;22;20694;-66
2023/06/28 02:40:15;;;;;;;4.37;3.60;;;23.00;61.50;;;;;;6267189;22;20237;-66
2023/06/28 02:42:41;;;;;;;4.40;3.40;;;23.00;61.10;;;;;;6265969;22;20174;-66
2023/06/28 02:45:07;;;;;;;9.13;3.90;;;23.00;60.60;;;;;;6266898;22;20153;-66
2023/06/28 02:47:32;;;;;;;10.60;3.20;;;23.00;60.50;;;;;;6266501;22;20170;-66
2023/06/28 02:50:03;;;;;;;5.00;3.47;;;23.00;60.50;;;;;;6267526;22;20388;-66
2023/06/28 02:52:29;;;;;;;7.67;3.73;;;23.00;60.70;;;;;;6267608;22;20135;-66
2023/06/28 02:54:55;;;;;;;4.40;3.43;;;23.00;60.50;;;;;;6265620;22;20376;-67
2023/06/28 02:57:20;;;;;;;3.60;3.10;;;23.00;60.60;;;;;;6267237;22;20154;-66
2023/06/28 02:59:46;;;;;;;4.13;3.57;;;23.00;60.50;;;;;;6266397;22;20257;-66
2023/06/28 03:02:15;;;;;;;4.23;3.50;;;23.00;60.40;;;;;;6266423;22;20143;-66
2023/06/28 03:04:41;;;;;;;5.10;3.53;;;23.00;60.50;;;;;;6267731;22;20221;-66
2023/06/28 03:07:11;;;;;;;6.87;3.67;;;23.00;61.30;;;;;;6266543;22;20404;-66
2023/06/28 03:09:37;;;;;;;3.60;3.30;;;23.00;60.00;;;;;;6266298;22;20693;-66
2023/06/28 03:12:03;;;;;;;6.60;3.80;;;23.00;60.10;;;;;;6267360;22;20393;-66
2023/06/28 03:14:28;;;;;;;5.70;3.77;;;23.00;60.20;;;;;;6267802;22;20154;-66
2023/06/28 03:16:54;;;;;;;4.20;3.70;;;23.00;60.00;;;;;;6266733;22;20670;-66
2023/06/28 03:19:19;;;;;;;4.13;3.50;;;23.00;60.20;;;;;;6265723;22;20225;-66
2023/06/28 03:21:45;;;;;;;7.63;3.90;;;23.00;60.10;;;;;;6267975;22;20215;-66
2023/06/28 03:24:10;;;;;;;5.13;4.20;;;23.10;60.00;;;;;;6267170;22;20147;-66
2023/06/28 03:26:36;;;;;;;5.33;3.83;;;23.10;59.90;;;;;;6267360;22;20154;-66
2023/06/28 03:29:01;;;;;;;6.67;3.73;;;23.10;60.10;;;;;;6266344;22;20261;-66
2023/06/28 03:31:27;;;;;;;7.23;4.30;;;23.00;59.90;;;;;;6266668;22;20147;-66
2023/06/28 03:33:53;;;;;;;4.20;3.80;;;23.00;61.80;;;;;;6265913;22;20469;-66
2023/06/28 03:36:19;;;;;;;7.00;3.83;;;22.80;65.60;;;;;;6267415;22;20698;-66
2023/06/28 03:38:44;;;;;;;6.13;4.00;;;22.80;66.50;;;;;;6266996;22;20204;-66
2023/06/28 03:41:10;;;;;;;5.83;4.30;;;22.90;67.60;;;;;;6265746;22;20436;-66
2023/06/28 03:43:35;;;;;;;5.43;3.70;;;22.90;68.60;;;;;;6265427;22;20188;-66
2023/06/28 03:46:01;;;;;;;3.77;3.43;;;22.80;68.70;;;;;;6265401;22;20157;-66
2023/06/28 03:48:26;;;;;;;4.30;3.50;;;22.90;68.20;;;;;;6265571;22;20169;-66
2023/06/28 03:50:52;;;;;;;6.17;3.70;;;22.90;67.90;;;;;;6264461;22;20587;-66
2023/06/28 03:53:17;;;;;;;5.60;3.70;;;22.90;67.60;;;;;;6266432;22;20591;-66
2023/06/28 03:55:43;;;;;;;5.00;3.50;;;22.90;68.00;;;;;;6265207;22;20635;-66
2023/06/28 03:58:08;;;;;;;4.90;4.03;;;22.90;68.60;;;;;;6265740;22;20779;-65
2023/06/28 04:00:34;;;;;;;6.67;4.00;;;22.80;69.20;;;;;;6265264;22;20189;-65
2023/06/28 04:03:01;;;;;;;6.00;4.10;;;22.70;69.40;;;;;;6264835;22;20150;-66
2023/06/28 04:05:26;;;;;;;5.60;3.97;;;22.80;69.40;;;;;;6264899;22;20171;-66
2023/06/28 04:07:57;;;;;;;8.83;4.57;;;22.70;70.00;;;;;;6265687;22;20709;-65
2023/06/28 04:10:23;;;;;;;5.93;4.93;;;22.60;72.30;;;;;;6266311;22;20641;-66
2023/06/28 04:12:49;;;;;;;5.03;4.00;;;22.40;72.10;;;;;;6264240;22;20731;-66
2023/06/28 04:15:14;;;;;;;6.27;3.77;;;22.40;71.60;;;;;;6266415;22;20989;-65
2023/06/28 04:17:40;;;;;;;5.93;3.80;;;22.40;70.30;;;;;;6266565;22;20150;-65
2023/06/28 04:20:06;;;;;;;6.53;3.37;;;22.40;69.10;;;;;;6262947;22;20204;-65
2023/06/28 04:22:32;;;;;;;5.40;3.70;;;22.40;67.80;;;;;;6266570;22;20230;-66
2023/06/28 04:24:58;;;;;;;4.20;3.50;;;22.40;67.50;;;;;;6264696;22;20405;-65
2023/06/28 04:27:23;;;;;;;4.57;3.73;;;22.30;67.10;;;;;;6265440;22;20204;-65
2023/06/28 04:29:49;;;;;;;5.03;3.97;;;22.20;67.70;;;;;;6265696;22;20589;-65
2023/06/28 04:32:25;;;;;;;6.20;4.10;;;22.10;68.40;;;;;;6265279;22;20159;-66
2023/06/28 04:34:53;;;;;;;13.60;4.43;;;22.10;68.50;;;;;;6263838;22;20139;-66
2023/06/28 04:37:22;;;;;;;4.67;3.53;;;22.20;68.20;;;;;;6265722;22;20429;-66
2023/06/28 04:39:47;;;;;;;7.07;4.47;;;22.10;68.00;;;;;;6266982;22;20398;-66
2023/06/28 04:42:14;;;;;;;4.53;3.90;;;22.20;67.90;;;;;;6266853;22;20396;-66
2023/06/28 04:44:43;;;;;;;5.57;3.83;;;22.20;68.10;;;;;;6266148;22;20147;-66
2023/06/28 04:47:09;;;;;;;4.63;3.90;;;22.30;68.30;;;;;;6240258;22;20428;-66
2023/06/28 04:49:35;;;;;;;6.70;3.90;;;22.30;68.10;;;;;;6266959;22;20914;-66
2023/06/28 04:52:01;;;;;;;4.10;3.70;;;22.40;68.30;;;;;;6266888;22;20381;-66
2023/06/28 04:54:26;;;;;;;5.73;4.30;;;22.40;68.50;;;;;;6265974;22;20209;-66
2023/06/28 04:56:52;;;;;;;4.93;3.90;;;22.40;68.00;;;;;;6266451;22;20173;-66
2023/06/28 04:59:17;;;;;;;7.27;3.83;;;22.50;67.80;;;;;;6265485;22;20526;-66
2023/06/28 05:01:43;;;;;;;8.97;4.33;;;22.50;67.70;;;;;;6238825;22;20194;-66
2023/06/28 05:04:08;;;;;;;4.60;3.90;;;22.60;68.30;;;;;;6265386;22;20147;-66
2023/06/28 05:06:37;;;;;;;5.53;4.33;;;22.60;67.80;;;;;;6267614;22;20185;-65
2023/06/28 05:09:02;;;;;;;6.63;4.50;;;22.70;66.80;;;;;;6266337;22;20630;-66
2023/06/28 05:11:28;;;;;;;5.63;3.60;;;22.70;66.60;;;;;;6266582;22;20377;-65
2023/06/28 05:13:53;;;;;;;6.80;3.80;;;22.70;65.90;;;;;;6264512;22;20164;-66
2023/06/28 05:16:19;;;;;;;9.00;3.63;;;22.70;65.90;;;;;;6266462;22;20238;-66
2023/06/28 05:18:45;;;;;;;4.23;3.83;;;22.70;65.70;;;;;;6267015;22;20167;-66
2023/06/28 05:21:11;;;;;;;7.07;3.30;;;22.70;65.90;;;;;;6266957;22;20189;-66
2023/06/28 05:23:36;;;;;;;6.60;3.93;;;22.70;65.50;;;;;;6265984;22;20404;-66
2023/06/28 05:26:03;;;;;;;4.43;3.70;;;22.70;65.10;;;;;;6266911;22;20268;-66
2023/06/28 05:28:28;;;;;;;8.30;5.73;;;22.70;64.80;;;;;;6267042;22;20384;-66
2023/06/28 05:30:54;;;;;;;4.20;3.57;;;22.70;64.50;;;;;;6258510;22;20369;-65
2023/06/28 05:33:19;;;;;;;5.60;3.53;;;22.70;64.50;;;;;;6266379;22;20154;-65
2023/06/28 05:35:45;;;;;;;4.10;3.70;;;22.70;64.60;;;;;;6264352;22;20616;-65
2023/06/28 05:38:10;;;;;;;4.63;3.37;;;22.70;64.60;;;;;;6263933;22;20249;-66
2023/06/28 05:40:36;;;;;;;6.30;3.90;;;22.80;64.90;;;;;;6264986;22;20178;-65
2023/06/28 05:43:02;;;;;;;9.13;3.87;;;22.80;65.10;;;;;;6262447;22;20147;-65
2023/06/28 05:45:29;;;;;;;7.50;4.23;;;22.70;65.30;;;;;;6234811;22;20155;-65
2023/06/28 05:47:55;;;;;;;5.30;3.90;;;22.80;65.20;;;;;;6262322;22;20170;-65
2023/06/28 05:50:24;;;;;;;7.90;4.57;;;22.80;65.10;;;;;;6263271;22;20438;-65
2023/06/28 05:52:50;;;;;;;5.33;3.77;;;22.80;65.10;;;;;;6263958;22;20370;-67
2023/06/28 05:55:16;;;;;;;5.57;3.63;;;22.80;65.00;;;;;;6260712;22;20806;-65
2023/06/28 05:57:41;;;;;;;6.93;3.83;;;22.80;65.30;;;;;;6261075;22;20373;-65
2023/06/28 06:00:09;;;;;;;6.33;4.10;;;22.80;66.00;;;;;;6262284;22;20210;-65
2023/06/28 06:02:35;;;;;;;4.90;4.27;;;22.80;65.80;;;;;;6263662;22;20150;-65
2023/06/28 06:05:03;;;;;;;6.80;4.90;;;22.80;65.60;;;;;;6260554;22;20390;-65
2023/06/28 06:07:29;;;;;;;9.27;4.20;;;22.80;65.40;;;;;;6260986;22;20507;-65
2023/06/28 06:09:55;;;;;;;7.10;4.20;;;22.80;65.20;;;;;;6258013;22;20424;-65
2023/06/28 06:12:20;;;;;;;6.47;4.00;;;22.80;65.30;;;;;;6258473;22;20438;-65
2023/06/28 06:14:50;;;;;;;4.70;4.00;;;22.80;65.40;;;;;;6263707;22;20874;-65
2023/06/28 06:17:19;;;;;;;8.30;5.13;;;22.80;66.00;;;;;;6265193;22;20146;-65
2023/06/28 06:19:44;;;;;;;7.03;4.40;;;22.90;66.30;;;;;;6262988;22;20699;-65
2023/06/28 06:22:10;;;;;;;4.27;3.80;;;22.90;66.90;;;;;;6266637;22;20388;-65
2023/06/28 06:24:35;;;;;;;5.23;4.73;;;22.90;67.00;;;;;;6265681;22;20624;-65
2023/06/28 06:27:02;;;;;;;6.33;3.83;;;22.90;66.80;;;;;;6262694;22;20196;-66
2023/06/28 06:29:28;;;;;;;6.27;4.67;;;22.90;66.90;;;;;;6261613;22;20199;-66
2023/06/28 06:31:53;;;;;;;9.13;4.57;;;22.90;66.60;;;;;;6263936;22;20373;-65
2023/06/28 06:34:19;;;;;;;8.73;4.20;;;23.00;66.40;;;;;;6264622;22;20185;-66
2023/06/28 06:36:44;;;;;;;10.40;4.07;;;23.00;66.10;;;;;;6266659;22;20595;-66
2023/06/28 06:39:10;;;;;;;6.67;5.13;;;23.00;66.10;;;;;;6262747;22;20181;-66
2023/06/28 06:41:35;;;;;;;7.83;3.80;;;23.10;66.20;;;;;;6268890;22;20174;-66
2023/06/28 06:44:01;;;;;;;8.03;4.50;;;23.10;65.70;;;;;;6265432;22;20214;-66
2023/06/28 06:46:27;;;;;;;6.03;4.27;;;23.20;65.50;;;;;;6264262;22;20196;-66
2023/06/28 06:48:53;;;;;;;6.57;4.40;;;23.20;65.40;;;;;;6263995;22;20174;-66
2023/06/28 06:51:19;;;;;;;6.23;4.00;;;23.30;65.00;;;;;;6236811;22;20154;-68
2023/06/28 06:53:45;;;;;;;4.63;3.60;;;23.30;64.70;;;;;;6264915;22;20373;-68
2023/06/28 06:56:10;;;;;;;5.63;3.80;;;23.40;64.60;;;;;;6267035;22;20479;-69
2023/06/28 06:58:36;;;;;;;5.23;4.37;;;23.40;64.40;;;;;;6257371;22;20480;-68
2023/06/28 07:01:02;;;;;;;3.87;3.40;;;23.50;64.20;;;;;;6255455;22;20208;-68
2023/06/28 07:03:28;;;;;;;8.43;3.93;;;23.50;64.10;;;;;;6229533;22;20389;-68
2023/06/28 07:05:53;;;;;;;12.03;4.60;;;23.60;64.10;;;;;;6257195;22;20632;-69
2023/06/28 07:08:19;;;;;;;10.60;3.83;;;23.60;63.90;;;;;;6256095;22;20174;-69
2023/06/28 07:10:45;;;;;;;6.23;3.37;;;23.70;63.90;;;;;;6256806;22;20220;-68
2023/06/28 07:13:10;;;;;;;6.83;3.90;;;23.70;63.70;;;;;;6259644;22;20178;-69
2023/06/28 07:15:36;;;;;;;7.13;4.17;;;23.70;63.70;;;;;;6266622;22;20812;-70
2023/06/28 07:18:02;;;;;;;6.87;3.83;;;23.70;63.70;;;;;;6268691;22;20223;-69
2023/06/28 07:20:27;;;;;;;5.13;3.47;;;23.80;64.00;;;;;;6252460;22;20208;-69
2023/06/28 07:22:53;;;;;;;7.60;3.63;;;23.80;65.10;;;;;;6265687;22;20154;-69
2023/06/28 07:25:18;;;;;;;5.87;4.13;;;23.80;64.10;;;;;;6266869;22;20155;-69
2023/06/28 07:27:44;;;;;;;6.87;4.07;;;23.80;64.50;;;;;;6262905;22;20147;-69
2023/06/28 07:30:12;;;;;;;6.90;4.27;;;23.80;64.40;;;;;;6267037;22;20179;-69
2023/06/28 07:32:38;;;;;;;7.50;4.60;;;23.80;64.50;;;;;;6266855;22;20150;-69
2023/06/28 07:35:03;;;;;;;7.13;4.50;;;23.90;64.40;;;;;;6265686;22;20415;-69
2023/06/28 07:37:30;;;;;;;7.93;4.70;;;24.00;63.90;;;;;;6240397;22;20190;-69
2023/06/28 07:39:57;;;;;;;10.07;4.90;;;24.00;63.30;;;;;;6241170;22;20235;-69
2023/06/28 07:42:23;;;;;;;8.03;4.30;;;24.00;63.20;;;;;;6269045;22;20506;-69
2023/06/28 07:44:49;;;;;;;9.27;4.10;;;24.10;63.10;;;;;;6259276;22;20376;-69
2023/06/28 07:47:15;;;;;;;5.10;4.03;;;24.20;63.10;;;;;;6266230;22;20378;-69
2023/06/28 07:49:40;;;;;;;9.20;3.83;;;24.20;62.90;;;;;;6263010;22;20167;-69
2023/06/28 07:52:06;;;;;;;7.57;3.90;;;24.20;62.40;;;;;;6267542;22;20143;-70
2023/06/28 07:54:32;;;;;;;5.03;3.80;;;24.30;61.60;;;;;;6267050;22;20950;-70
2023/06/28 07:56:58;;;;;;;6.27;4.17;;;24.20;61.60;;;;;;6266476;22;20376;-69
2023/06/28 07:59:23;;;;;;;4.87;3.97;;;24.20;61.60;;;;;;6266500;22;20213;-69
2023/06/28 08:01:49;;;;;;;5.23;4.57;;;24.20;61.60;;;;;;6266413;22;20247;-68
2023/06/28 08:04:16;;;;;;;6.37;3.83;;;24.20;61.40;;;;;;6265614;22;20497;-69
2023/06/28 08:06:44;;;;;;;7.33;4.73;;;24.20;61.20;;;;;;6267306;22;20390;-68
2023/06/28 08:09:09;;;;;;;7.37;3.67;;;24.30;61.30;;;;;;6267766;22;20782;-68
2023/06/28 08:11:35;;;;;;;10.20;4.50;;;24.20;61.20;;;;;;6267385;22;20435;-68
2023/06/28 08:14:01;;;;;;;7.43;4.03;;;24.20;61.30;;;;;;6266861;22;20599;-68
2023/06/28 08:16:27;;;;;;;7.87;3.77;;;24.20;61.70;;;;;;6267475;22;20216;-68
2023/06/28 08:18:52;;;;;;;8.03;3.97;;;24.20;61.90;;;;;;6266778;22;20840;-67
2023/06/28 08:21:18;;;;;;;7.30;3.63;;;24.30;62.60;;;;;;6267830;22;20483;-68
2023/06/28 08:23:43;;;;;;;6.73;4.30;;;24.30;61.40;;;;;;6264937;22;20158;-68
2023/06/28 08:26:09;;;;;;;7.00;3.70;;;24.40;61.00;;;;;;6268019;22;20142;-68
2023/06/28 08:28:35;;;;;;;6.13;4.37;;;24.30;60.60;;;;;;6264437;22;20249;-67
2023/06/28 08:31:01;;;;;;;6.10;4.13;;;24.30;60.90;;;;;;6265159;22;20155;-67
2023/06/28 08:33:26;;;;;;;6.90;4.27;;;24.30;61.30;;;;;;6238805;22;20208;-67
2023/06/28 08:35:52;;;;;;;5.87;4.10;;;24.20;60.90;;;;;;6266651;22;20161;-67
2023/06/28 08:38:17;;;;;;;5.23;4.10;;;24.30;61.00;;;;;;6267935;22;20185;-67
2023/06/28 08:40:43;;;;;;;9.47;7.33;;;24.20;60.50;;;;;;6265352;22;20181;-68
2023/06/28 08:43:14;;;;;;;8.10;4.93;;;24.20;60.30;;;;;;6266467;22;20552;-67
2023/06/28 08:45:42;;;;;;;5.90;4.00;;;24.20;60.50;;;;;;6266975;22;20143;-67
2023/06/28 08:48:08;;;;;;;5.50;4.03;;;24.20;60.10;;;;;;6266919;22;20786;-68
2023/06/28 08:50:38;;;;;;;9.10;4.10;;;24.20;60.40;;;;;;6265402;22;20377;-67
2023/06/28 08:53:09;;;;;;;5.13;3.90;;;24.20;59.60;;;;;;6238798;22;20381;-67
2023/06/28 08:55:36;;;;;;;6.57;4.40;;;24.20;59.60;;;;;;6266492;22;20674;-67
2023/06/28 08:58:03;;;;;;;7.13;5.40;;;24.20;58.90;;;;;;6265428;22;20397;-68
2023/06/28 09:00:28;;;;;;;5.60;4.30;;;24.20;59.10;;;;;;6266805;22;20459;-68
2023/06/28 09:02:57;;;;;;;8.10;4.30;;;24.20;58.90;;;;;;6266905;22;20410;-68
2023/06/28 09:05:23;;;;;;;5.80;4.10;;;24.20;58.70;;;;;;6266651;22;20241;-67
2023/06/28 09:07:53;;;;;;;6.63;4.97;;;24.20;58.70;;;;;;6238189;22;20369;-68
2023/06/28 09:10:19;;;;;;;18.17;4.90;;;24.20;58.90;;;;;;6267480;22;20388;-68
2023/06/28 09:12:47;;;;;;;5.63;4.20;;;24.30;58.50;;;;;;6266685;22;20373;-68
2023/06/28 09:15:12;;;;;;;9.57;4.73;;;24.40;58.00;;;;;;6238070;22;20903;-68
2023/06/28 09:17:38;;;;;;;7.27;4.10;;;24.30;58.00;;;;;;6267010;22;20378;-68
2023/06/28 09:20:17;;;;;;;5.80;4.00;;;24.30;57.50;;;;;;6265822;22;20850;-69
2023/06/28 09:22:43;;;;;;;8.90;4.40;;;24.30;58.00;;;;;;6266118;22;20625;-67
2023/06/28 09:25:08;;;;;;;9.07;4.10;;;24.40;58.10;;;;;;6240018;22;20385;-68
2023/06/28 09:27:34;;;;;;;13.47;12.07;;;24.50;58.00;;;;;;6265429;22;20147;-68
2023/06/28 09:30:00;;;;;;;6.87;5.57;;;24.60;58.10;;;;;;6265064;22;20477;-68
2023/06/28 09:32:42;;;;;;;6.77;3.87;;;24.70;58.20;;;;;;6266686;22;20150;-68
2023/06/28 09:35:10;;;;;;;8.10;6.37;;;24.70;58.10;;;;;;6266819;22;20388;-68
2023/06/28 09:37:38;;;;;;;6.13;4.07;;;24.90;58.10;;;;;;6266453;22;20377;-68
2023/06/28 09:40:06;;;;;;;5.87;4.23;;;24.90;58.00;;;;;;6266520;22;20954;-68
2023/06/28 09:42:32;;;;;;;9.90;4.03;;;25.00;57.70;;;;;;6267027;22;20369;-68
2023/06/28 09:44:57;;;;;;;5.53;4.20;;;25.10;56.80;;;;;;6238621;22;20369;-68
2023/06/28 09:47:32;;;;;;;5.60;4.00;;;24.90;56.30;;;;;;6263897;22;20370;-68
2023/06/28 09:50:01;;;;;;;8.00;4.13;;;24.90;56.60;;;;;;6265407;22;20884;-68
2023/06/28 09:52:26;;;;;;;5.40;3.73;;;24.90;56.30;;;;;;6265966;22;20430;-68
2023/06/28 09:54:52;;;;;;;5.80;3.93;;;25.00;56.60;;;;;;6264956;22;20381;-68
2023/06/28 09:57:18;;;;;;;10.60;3.97;;;25.00;56.00;;;;;;6266838;22;20241;-68
2023/06/28 09:59:45;;;;;;;7.23;3.57;;;24.90;56.60;;;;;;6265700;22;20680;-68
2023/06/28 10:02:15;;;;;;;6.50;3.93;;;25.00;56.80;;;;;;6238168;22;20416;-69
2023/06/28 10:04:41;;;;;;;8.00;4.10;;;25.10;56.40;;;;;;6265483;22;20380;-69
2023/06/28 10:07:10;;;;;;;5.87;4.03;;;25.30;56.30;;;;;;6266781;22;20373;-68
2023/06/28 10:09:38;;;;;;;7.60;5.23;;;25.30;56.00;;;;;;6266309;22;20169;-68
2023/06/28 10:12:12;;;;;;;7.07;4.60;;;25.30;56.10;;;;;;6266380;22;20380;-68
2023/06/28 10:15:04;;;;;;;6.00;3.87;;;25.40;55.90;;;;;;6263411;22;20867;-68
2023/06/28 10:17:32;;;;;;;4.80;3.97;;;25.40;55.80;;;;;;6244778;22;20393;-68
2023/06/28 10:19:59;;;;;;;4.30;3.90;;;25.60;55.50;;;;;;6264432;22;20377;-68
2023/06/28 10:22:25;;;;;;;6.17;3.70;;;25.60;55.40;;;;;;6266167;22;20480;-68
2023/06/28 10:24:52;;;;;;;7.33;4.43;;;25.50;56.10;;;;;;6266273;22;20766;-67
2023/06/28 10:27:18;;;;;;;6.20;4.30;;;25.50;55.70;;;;;;6265719;22;20150;-68
2023/06/28 10:29:47;;;;;;;9.03;4.00;;;25.60;55.70;;;;;;6266684;22;20389;-67
2023/06/28 10:32:14;;;;;;;7.30;4.00;;;25.60;55.90;;;;;;6266454;22;20410;-67
2023/06/28 10:34:40;;;;;;;6.50;4.17;;;25.70;56.00;;;;;;6266775;22;20703;-67
2023/06/28 10:37:06;;;;;;;10.00;3.83;;;25.80;55.80;;;;;;6265919;22;21156;-67
2023/06/28 10:39:35;;;;;;;5.67;3.83;;;25.70;54.80;;;;;;6266273;22;20394;-68
2023/06/28 10:42:01;;;;;;;8.10;4.63;;;25.60;55.10;;;;;;6265498;22;20170;-67
2023/06/28 10:44:26;;;;;;;7.43;4.00;;;25.50;54.80;;;;;;6266088;22;20414;-68
2023/06/28 10:47:11;;;;;;;6.90;3.73;;;25.40;55.30;;;;;;6266754;22;20385;-68
2023/06/28 10:49:40;;;;;;;7.30;3.53;;;25.50;55.20;;;;;;6267037;22;20174;-67
2023/06/28 10:52:13;;;;;;;9.40;3.80;;;25.60;54.40;;;;;;6265927;22;21389;-67
2023/06/28 10:54:39;;;;;;;6.33;4.83;;;25.80;54.80;;;;;;6266421;22;20365;-67
2023/06/28 10:57:11;;;;;;;7.23;3.77;;;26.00;54.60;;;;;;6265299;22;20373;-68
2023/06/28 10:59:41;;;;;;;5.40;3.77;;;26.30;54.10;;;;;;6265220;22;20692;-67
2023/06/28 11:02:07;;;;;;;7.53;3.07;;;26.50;53.60;;;;;;6267420;22;20962;-68
2023/06/28 11:04:33;;;;;;;4.90;3.47;;;26.70;52.70;;;;;;6268301;22;20384;-68
2023/06/28 11:07:15;;;;;;;5.47;4.23;;;26.80;52.70;;;;;;6266127;22;20174;-68
2023/06/28 11:10:01;;;;;;;4.63;3.60;;;26.80;51.30;;;;;;6265554;22;20231;-69
2023/06/28 11:12:26;;;;;;;4.33;3.17;;;26.60;51.60;;;;;;6267317;22;20373;-69
2023/06/28 11:15:12;;;;;;;4.57;3.60;;;26.70;51.60;;;;;;6265528;22;20366;-68
2023/06/28 11:17:37;;;;;;;7.00;3.90;;;27.00;51.90;;;;;;6237647;22;20147;-68
2023/06/28 11:20:09;;;;;;;4.80;3.33;;;26.80;51.20;;;;;;6262250;22;20413;-67
2023/06/28 11:22:48;;;;;;;7.60;4.80;;;27.10;51.30;;;;;;6264990;22;20147;-67
2023/06/28 11:25:14;;;;;;;4.70;3.23;;;27.50;50.90;;;;;;6267831;22;20435;-67
2023/06/28 11:27:40;;;;;;;5.00;3.60;;;27.70;50.80;;;;;;6268334;22;20397;-67
2023/06/28 11:30:08;;;;;;;6.10;3.70;;;27.70;50.80;;;;;;6266519;22;20468;-67
2023/06/28 11:32:36;;;;;;;6.30;3.67;;;28.00;51.30;;;;;;6267623;22;20373;-67
2023/06/28 11:35:03;;;;;;;7.73;4.60;;;28.20;51.50;;;;;;6267192;22;20405;-67
2023/06/28 11:37:30;;;;;;;4.00;3.40;;;28.50;50.90;;;;;;6267496;22;20377;-67
2023/06/28 11:39:58;;;;;;;5.50;4.60;;;28.70;50.50;;;;;;6267466;22;20446;-67
2023/06/28 11:42:24;;;;;;;9.10;3.73;;;28.80;50.40;;;;;;6267592;22;20705;-68
2023/06/28 11:44:51;;;;;;;4.97;4.20;;;28.80;50.50;;;;;;6265688;22;20370;-67
2023/06/28 11:47:19;;;;;;;11.80;4.30;;;28.60;50.70;;;;;;6267341;22;20149;-67
2023/06/28 11:49:46;;;;;;;7.17;4.57;;;28.80;50.90;;;;;;6267517;22;20420;-67
2023/06/28 11:52:12;;;;;;;6.30;4.30;;;28.70;50.70;;;;;;6266204;22;20415;-67
2023/06/28 11:54:39;;;;;;;6.53;4.30;;;28.90;50.40;;;;;;6267014;22;20684;-67
2023/06/28 11:57:05;;;;;;;4.80;3.80;;;29.10;50.40;;;;;;6266091;22;20840;-67
2023/06/28 11:59:30;;;;;;;6.33;4.87;;;29.30;50.30;;;;;;6267580;22;20416;-67
2023/06/28 12:02:05;;;;;;;5.47;3.87;;;29.40;50.50;;;;;;6267099;22;20179;-68
2023/06/28 12:04:31;;;;;;;6.80;3.80;;;29.30;50.30;;;;;;6268345;22;20641;-67
2023/06/28 12:06:59;;;;;;;8.30;4.30;;;28.90;50.70;;;;;;6266860;22;20463;-67
2023/06/28 12:09:27;;;;;;;7.20;4.43;;;29.00;50.90;;;;;;6268259;22;20400;-67
2023/06/28 12:11:58;;;;;;;10.43;4.53;;;30.10;50.80;;;;;;6241089;22;20400;-68
2023/06/28 12:14:28;;;;;;;6.30;5.07;;;30.20;49.40;;;;;;6268218;22;20715;-67
2023/06/28 12:16:57;;;;;;;4.00;3.60;;;30.20;49.90;;;;;;6266192;22;20377;-67
2023/06/28 12:19:27;;;;;;;4.87;3.90;;;31.60;49.50;;;;;;6267445;22;20405;-67
2023/06/28 12:21:54;;;;;;;6.10;4.30;;;32.60;48.50;;;;;;6268318;22;20392;-67
2023/06/28 12:24:26;;;;;;;6.73;4.20;;;32.10;45.80;;;;;;6267311;22;20409;-67
2023/06/28 12:26:57;;;;;;;7.60;4.17;;;32.00;47.00;;;;;;6240291;22;20404;-67
2023/06/28 12:29:26;;;;;;;5.00;4.40;;;32.40;46.60;;;;;;6242265;22;20429;-67
2023/06/28 12:31:53;;;;;;;9.70;4.70;;;31.80;46.50;;;;;;6267609;22;20848;-67
2023/06/28 12:34:23;;;;;;;4.57;4.13;;;31.40;47.00;;;;;;6268563;22;20374;-66
2023/06/28 12:36:54;;;;;;;4.70;4.30;;;30.90;47.60;;;;;;6268191;22;20750;-66
2023/06/28 12:39:28;;;;;;;6.47;4.10;;;30.70;47.70;;;;;;6268706;22;21062;-67
2023/06/28 12:42:02;;;;;;;6.27;3.73;;;30.40;48.10;;;;;;6267832;22;20414;-68
2023/06/28 12:44:29;;;;;;;6.80;3.80;;;30.20;48.40;;;;;;6267032;22;20373;-67